South Padre Island, Texas
Current Conditions -  °F | °C
As of 6:53 PM on Thursday 27 Nov 2014 (Local Time) from KPIL Reporting Station
Clear Clear  
Wind Chill: 62°   Ceiling: Unl
Heat Index: 62°   Visibility: 8mi
Dew Point: 58°   Wind: 7mph
Humidity: 86%   Direction: 40°NE
Pressure: 30.37"   Gusts: NA
Location:  26.1°N, 97.17°W
Report Text: KPIL 280053Z AUTO 04006KT 8SM CLR 17/14 A3037 RMK AO2 SLP285 T01670144
Loading
Personal Weather Stations






























Interactive Weather Map New forecast layout! Learn more

10-Day Weather Forecast

Advertisements
Track Severe Weather on mobile